Hull, United Kingdom
Current Conditions -  °F | °C
As of 1:50 PM on Monday 20 Oct 2014 (Local Time) from EGXV Reporting Station
Scattered Clouds Scattered Clouds  
Wind Chill: 55°   Ceiling: Unl
Heat Index: 55°   Visibility: 6mi
Dew Point: 52°   Wind: 13mph
Humidity: 88%   Direction: 230°SW
Pressure: 29.83"   Gusts: NA
Location:  53.74°N, 0.34°W
Report Text: EGXV 201250Z AUTO 23011KT 9999 FEW028/// SCT070/// 13/11 Q1010 RERA
Loading
Personal Weather Stations






























Interactive Weather Map
Tropical Storm Tracking
New forecast layout! Learn more

10-Day Weather Forecast

Advertisements
Track Severe Weather on mobile